createdAt,value
2023-05-16T00:00:26.362Z,22.55
2023-05-16T00:01:26.146Z,22.55
2023-05-16T00:02:26.285Z,22.55
2023-05-16T00:03:26.333Z,22.55
2023-05-16T00:04:26.237Z,22.55
2023-05-16T00:05:26.295Z,22.55
2023-05-16T00:06:26.290Z,22.54
2023-05-16T00:07:26.340Z,22.55
2023-05-16T00:08:26.344Z,22.54
2023-05-16T00:09:26.380Z,22.54
2023-05-16T00:10:26.644Z,22.54
2023-05-16T00:11:26.461Z,22.55
2023-05-16T00:12:26.512Z,22.55
2023-05-16T00:13:26.563Z,22.53
2023-05-16T00:14:26.593Z,22.53
2023-05-16T00:15:26.638Z,22.53
2023-05-16T00:16:26.684Z,22.52
2023-05-16T00:17:26.748Z,22.53
2023-05-16T00:18:26.751Z,22.52
2023-05-16T00:19:26.779Z,22.53
2023-05-16T00:20:27.225Z,22.53
2023-05-16T00:21:26.830Z,22.52
2023-05-16T00:22:26.886Z,22.53
2023-05-16T00:23:26.930Z,22.52
2023-05-16T00:24:26.936Z,22.52
2023-05-16T00:25:27.027Z,22.51
2023-05-16T00:26:27.090Z,22.52
2023-05-16T00:27:27.059Z,22.51
2023-05-16T00:28:27.090Z,22.52
2023-05-16T00:29:27.139Z,22.52
2023-05-16T00:30:27.394Z,22.51
2023-05-16T00:31:27.209Z,22.51
2023-05-16T00:32:27.293Z,22.51
2023-05-16T00:33:27.310Z,22.51
2023-05-16T00:34:27.353Z,22.51
2023-05-16T00:35:27.398Z,22.51
2023-05-16T00:36:27.416Z,22.50
2023-05-16T00:37:27.420Z,22.51
2023-05-16T00:38:27.465Z,22.51
2023-05-16T00:39:27.520Z,22.50
2023-05-16T00:40:27.751Z,22.50
2023-05-16T00:41:27.623Z,22.50
2023-05-16T00:42:27.628Z,22.50
2023-05-16T00:43:27.672Z,22.50
2023-05-16T00:44:27.713Z,22.49
2023-05-16T00:45:27.766Z,22.49
2023-05-16T00:46:27.859Z,22.50
2023-05-16T00:47:27.963Z,22.49
2023-05-16T00:48:27.855Z,22.49
2023-05-16T00:49:27.924Z,22.49
2023-05-16T00:50:28.222Z,22.48
2023-05-16T00:51:27.979Z,22.49
2023-05-16T00:52:28.018Z,22.48
2023-05-16T00:53:28.064Z,22.49
2023-05-16T00:54:28.135Z,22.48
2023-05-16T00:55:28.157Z,22.49
2023-05-16T00:56:28.179Z,22.49
2023-05-16T00:57:28.217Z,22.49
2023-05-16T00:58:28.345Z,22.48
2023-05-16T00:59:28.292Z,22.48
2023-05-16T01:00:28.644Z,22.48
2023-05-16T01:01:28.426Z,22.48
2023-05-16T01:02:28.562Z,22.48
2023-05-16T01:03:28.511Z,22.48
2023-05-16T01:04:28.522Z,22.47
2023-05-16T01:05:28.797Z,22.48
2023-05-16T01:06:28.612Z,22.48
2023-05-16T01:07:28.631Z,22.47
2023-05-16T01:08:28.718Z,22.48
2023-05-16T01:09:28.690Z,22.48
2023-05-16T01:10:28.747Z,22.48
2023-05-16T01:11:28.823Z,22.47
2023-05-16T01:12:28.808Z,22.47
2023-05-16T01:13:28.821Z,22.47
2023-05-16T01:14:28.911Z,22.47
2023-05-16T01:15:29.208Z,22.46
2023-05-16T01:16:28.947Z,22.47
2023-05-16T01:17:28.989Z,22.46
2023-05-16T01:18:29.098Z,22.46
2023-05-16T01:19:29.093Z,22.47
2023-05-16T01:20:29.078Z,22.47
2023-05-16T01:21:29.105Z,22.47
2023-05-16T01:22:29.129Z,22.47
2023-05-16T01:23:29.186Z,22.47
2023-05-16T01:24:29.192Z,22.47
2023-05-16T01:25:29.328Z,22.46
2023-05-16T01:26:29.260Z,22.46
2023-05-16T01:27:29.345Z,22.45
2023-05-16T01:28:29.371Z,22.45
2023-05-16T01:29:29.517Z,22.46
2023-05-16T01:30:29.432Z,22.45
2023-05-16T01:31:29.524Z,22.45
2023-05-16T01:32:29.539Z,22.45
2023-05-16T01:33:29.550Z,22.45
2023-05-16T01:34:29.604Z,22.45
2023-05-16T01:35:29.679Z,22.45
2023-05-16T01:36:29.721Z,22.45
2023-05-16T01:37:29.748Z,22.45
2023-05-16T01:38:29.760Z,22.45
2023-05-16T01:39:29.800Z,22.44
2023-05-16T01:40:29.857Z,22.44
2023-05-16T01:41:29.879Z,22.44
2023-05-16T01:42:29.958Z,22.44
2023-05-16T01:43:30.000Z,22.43
2023-05-16T01:44:30.011Z,22.44
2023-05-16T01:45:30.197Z,22.44
2023-05-16T01:46:30.133Z,22.43
2023-05-16T01:47:30.157Z,22.44
2023-05-16T01:48:30.185Z,22.44
2023-05-16T01:49:30.189Z,22.44
2023-05-16T01:50:30.374Z,22.43
2023-05-16T01:51:30.298Z,22.43
2023-05-16T01:52:30.322Z,22.43
2023-05-16T01:53:30.376Z,22.42
2023-05-16T01:54:30.404Z,22.42
2023-05-16T01:55:30.457Z,22.42
2023-05-16T01:56:30.542Z,22.43
2023-05-16T01:57:30.511Z,22.42
2023-05-16T01:58:30.546Z,22.42
2023-05-16T01:59:30.580Z,22.42
2023-05-16T02:00:30.663Z,22.42
2023-05-16T02:01:30.698Z,22.42
2023-05-16T02:02:31.401Z,22.41
2023-05-16T02:03:30.807Z,22.41
2023-05-16T02:04:30.812Z,22.40
2023-05-16T02:05:30.880Z,22.41
2023-05-16T02:06:30.932Z,22.41
2023-05-16T02:07:30.928Z,22.41
2023-05-16T02:08:30.995Z,22.42
2023-05-16T02:09:31.016Z,22.41
2023-05-16T02:10:31.087Z,22.41
2023-05-16T02:11:31.243Z,22.41
2023-05-16T02:12:31.132Z,22.41
2023-05-16T02:13:31.206Z,22.40
2023-05-16T02:14:31.229Z,22.41
2023-05-16T02:15:31.292Z,22.40
2023-05-16T02:16:31.334Z,22.41
2023-05-16T02:17:31.437Z,22.40
2023-05-16T02:18:31.465Z,22.40
2023-05-16T02:19:31.514Z,22.40
2023-05-16T02:20:31.526Z,22.40
2023-05-16T02:21:31.564Z,22.40
2023-05-16T02:22:31.633Z,22.41
2023-05-16T02:23:31.672Z,22.40
2023-05-16T02:24:31.695Z,22.40
2023-05-16T02:25:31.726Z,22.40
2023-05-16T02:26:31.796Z,22.40
2023-05-16T02:27:31.847Z,22.40
2023-05-16T02:28:31.870Z,22.39
2023-05-16T02:29:31.918Z,22.40
2023-05-16T02:30:32.038Z,22.40
2023-05-16T02:31:32.279Z,22.40
2023-05-16T02:32:32.091Z,22.39
2023-05-16T02:33:32.101Z,22.39
2023-05-16T02:34:32.133Z,22.38
2023-05-16T02:35:32.208Z,22.39
2023-05-16T02:36:32.251Z,22.39
2023-05-16T02:37:32.262Z,22.39
2023-05-16T02:38:32.382Z,22.39
2023-05-16T02:39:32.378Z,22.39
2023-05-16T02:40:32.423Z,22.39
2023-05-16T02:41:32.476Z,22.39
2023-05-16T02:42:32.562Z,22.38
2023-05-16T02:43:32.575Z,22.39
2023-05-16T02:44:32.631Z,22.38
2023-05-16T02:45:32.675Z,22.37
2023-05-16T02:46:32.736Z,22.38
2023-05-16T02:47:32.813Z,22.37
2023-05-16T02:48:32.813Z,22.36
2023-05-16T02:49:32.836Z,22.37
2023-05-16T02:50:32.905Z,22.37
2023-05-16T02:51:32.933Z,22.38
2023-05-16T02:52:32.975Z,22.37
2023-05-16T02:53:33.039Z,22.37
2023-05-16T02:54:33.093Z,22.37
2023-05-16T02:55:33.182Z,22.37
2023-05-16T02:56:33.213Z,22.37
2023-05-16T02:57:33.245Z,22.38
2023-05-16T02:58:33.295Z,22.37
2023-05-16T02:59:33.353Z,22.36
2023-05-16T03:00:33.456Z,22.36
2023-05-16T03:01:33.500Z,22.36
2023-05-16T03:02:33.697Z,22.35
2023-05-16T03:03:33.637Z,22.35
2023-05-16T03:04:33.677Z,22.36
2023-05-16T03:05:33.677Z,22.35
2023-05-16T03:06:33.749Z,22.35
2023-05-16T03:07:33.744Z,22.35
2023-05-16T03:08:33.811Z,22.36
2023-05-16T03:09:33.853Z,22.36
2023-05-16T03:10:33.942Z,22.35
2023-05-16T03:11:35.008Z,22.36
2023-05-16T03:12:34.016Z,22.36
2023-05-16T03:13:34.017Z,22.35
2023-05-16T03:14:34.085Z,22.36
2023-05-16T03:15:34.166Z,22.35
2023-05-16T03:16:34.235Z,22.35
2023-05-16T03:17:34.245Z,22.35
2023-05-16T03:18:34.340Z,22.35
2023-05-16T03:19:34.330Z,22.34
2023-05-16T03:20:34.349Z,22.35
2023-05-16T03:21:34.423Z,22.35
2023-05-16T03:22:34.466Z,22.34
2023-05-16T03:23:34.527Z,22.35
2023-05-16T03:24:34.632Z,22.35
2023-05-16T03:25:35.426Z,22.34
2023-05-16T03:26:34.659Z,22.34
2023-05-16T03:27:34.688Z,22.34
2023-05-16T03:28:34.753Z,22.34
2023-05-16T03:29:34.818Z,22.35
2023-05-16T03:30:34.876Z,22.34
2023-05-16T03:31:34.942Z,22.34
2023-05-16T03:32:34.982Z,22.35
2023-05-16T03:33:34.996Z,22.34
2023-05-16T03:34:35.056Z,22.34
2023-05-16T03:35:35.107Z,22.33
2023-05-16T03:36:35.196Z,22.33
2023-05-16T03:37:35.205Z,22.33
2023-05-16T03:38:35.256Z,22.33
2023-05-16T03:39:35.323Z,22.33
2023-05-16T03:40:35.325Z,22.33
2023-05-16T03:41:35.396Z,22.33
2023-05-16T03:42:35.432Z,22.33
2023-05-16T03:43:35.499Z,22.33
2023-05-16T03:44:35.514Z,22.33
2023-05-16T03:45:35.622Z,22.32
2023-05-16T03:46:35.661Z,22.33
2023-05-16T03:47:35.711Z,22.32
2023-05-16T03:48:35.719Z,22.32
2023-05-16T03:49:35.761Z,22.32
2023-05-16T03:50:35.844Z,22.32
2023-05-16T03:51:35.863Z,22.32
2023-05-16T03:52:35.919Z,22.32
2023-05-16T03:53:35.957Z,22.32
2023-05-16T03:54:36.002Z,22.32
2023-05-16T03:55:36.112Z,22.32
2023-05-16T03:56:36.120Z,22.32
2023-05-16T03:57:36.211Z,22.31
2023-05-16T03:58:36.233Z,22.31
2023-05-16T03:59:36.277Z,22.32
2023-05-16T04:00:36.332Z,22.32
2023-05-16T04:01:36.426Z,22.31
2023-05-16T04:02:36.569Z,22.31
2023-05-16T04:03:36.497Z,22.31
2023-05-16T04:04:36.511Z,22.32
2023-05-16T04:05:36.716Z,22.31
2023-05-16T04:06:36.662Z,22.31
2023-05-16T04:07:36.702Z,22.31
2023-05-16T04:08:36.730Z,22.31
2023-05-16T04:09:36.780Z,22.31
2023-05-16T04:10:36.848Z,22.31
2023-05-16T04:11:36.895Z,22.30
2023-05-16T04:12:36.958Z,22.30
2023-05-16T04:13:37.092Z,22.30
2023-05-16T04:14:37.073Z,22.30
2023-05-16T04:15:37.135Z,22.30
2023-05-16T04:16:37.215Z,22.29
2023-05-16T04:17:37.260Z,22.29
2023-05-16T04:18:37.308Z,22.29
2023-05-16T04:19:37.376Z,22.30
2023-05-16T04:20:37.449Z,22.30
2023-05-16T04:21:37.475Z,22.30
2023-05-16T04:22:37.582Z,22.30
2023-05-16T04:23:37.595Z,22.30
2023-05-16T04:24:37.644Z,22.30
2023-05-16T04:25:37.712Z,22.29
2023-05-16T04:26:37.750Z,22.29
2023-05-16T04:27:37.807Z,22.28
2023-05-16T04:28:37.874Z,22.29
2023-05-16T04:29:38.017Z,22.29
2023-05-16T04:30:38.045Z,22.29
2023-05-16T04:31:38.087Z,22.29
2023-05-16T04:32:38.115Z,22.29
2023-05-16T04:33:38.138Z,22.30
2023-05-16T04:34:39.698Z,22.29
2023-05-16T04:35:38.268Z,22.29
2023-05-16T04:36:38.303Z,22.29
2023-05-16T04:37:38.353Z,22.29
2023-05-16T04:38:38.416Z,22.29
2023-05-16T04:39:38.456Z,22.28
2023-05-16T04:40:38.518Z,22.28
2023-05-16T04:41:38.555Z,22.28
2023-05-16T04:42:38.652Z,22.29
2023-05-16T04:43:38.707Z,22.28
2023-05-16T04:44:38.756Z,22.28
2023-05-16T04:45:38.821Z,22.28
2023-05-16T04:46:38.923Z,22.28
2023-05-16T04:47:38.987Z,22.28
2023-05-16T04:48:38.985Z,22.28
2023-05-16T04:49:39.010Z,22.28
2023-05-16T04:50:39.073Z,22.28
2023-05-16T04:51:39.127Z,22.27
2023-05-16T04:52:39.182Z,22.27
2023-05-16T04:53:39.317Z,22.28
2023-05-16T04:54:39.308Z,22.27
2023-05-16T04:55:39.361Z,22.27
2023-05-16T04:56:39.444Z,22.27
2023-05-16T04:57:39.473Z,22.27
2023-05-16T04:58:41.065Z,22.27
2023-05-16T04:59:39.534Z,22.27
2023-05-16T05:00:39.557Z,22.27
2023-05-16T05:01:39.816Z,22.27
2023-05-16T05:02:39.564Z,22.27
2023-05-16T05:03:39.515Z,22.27
2023-05-16T05:04:39.537Z,22.26
2023-05-16T05:05:39.573Z,22.27
2023-05-16T05:06:39.530Z,22.26
2023-05-16T05:07:39.478Z,22.27
2023-05-16T05:08:39.475Z,22.27
2023-05-16T05:09:39.464Z,22.27
2023-05-16T05:10:39.450Z,22.27
2023-05-16T05:11:39.617Z,22.26
2023-05-16T05:12:39.445Z,22.27
2023-05-16T05:13:39.964Z,22.26
2023-05-16T05:14:39.430Z,22.26
2023-05-16T05:15:39.427Z,22.27
2023-05-16T05:16:39.417Z,22.27
2023-05-16T05:17:39.456Z,22.28
2023-05-16T05:18:39.501Z,22.28
2023-05-16T05:19:39.490Z,22.28
2023-05-16T05:20:39.379Z,22.29
2023-05-16T05:21:39.374Z,22.29
2023-05-16T05:22:39.341Z,22.29
2023-05-16T05:23:39.361Z,22.29
2023-05-16T05:24:39.348Z,22.29
2023-05-16T05:25:39.344Z,22.31
2023-05-16T05:26:39.341Z,22.33
2023-05-16T05:27:39.375Z,22.33
2023-05-16T05:28:39.919Z,22.32
2023-05-16T05:29:39.311Z,22.32
2023-05-16T05:30:41.235Z,22.32
2023-05-16T05:31:39.310Z,22.32
2023-05-16T05:32:39.448Z,22.32
2023-05-16T05:33:39.280Z,22.32
2023-05-16T05:34:39.254Z,22.33
2023-05-16T05:35:39.499Z,22.33
2023-05-16T05:36:39.499Z,22.35
2023-05-16T05:37:39.248Z,22.38
2023-05-16T05:38:39.326Z,22.41
2023-05-16T05:39:39.210Z,22.43
2023-05-16T05:40:39.751Z,22.47
2023-05-16T05:41:39.198Z,22.51
2023-05-16T05:42:39.294Z,22.55
2023-05-16T05:43:39.212Z,22.57
2023-05-16T05:44:39.215Z,22.60
2023-05-16T05:45:39.503Z,22.63
2023-05-16T05:46:39.203Z,22.65
2023-05-16T05:47:39.239Z,22.70
2023-05-16T05:48:39.246Z,22.74
2023-05-16T05:49:40.137Z,22.76
2023-05-16T05:50:39.148Z,22.80
2023-05-16T05:51:39.139Z,22.81
2023-05-16T05:52:39.135Z,22.84
2023-05-16T05:53:39.122Z,22.88
2023-05-16T05:54:39.137Z,22.91
2023-05-16T05:55:39.487Z,22.93
2023-05-16T05:56:39.444Z,22.95
2023-05-16T05:57:39.093Z,22.97
2023-05-16T05:58:39.099Z,22.99
2023-05-16T05:59:39.085Z,23.01
2023-05-16T06:00:39.094Z,23.03
2023-05-16T06:01:39.085Z,23.06
2023-05-16T06:02:39.286Z,23.07
2023-05-16T06:03:39.129Z,23.09
2023-05-16T06:04:39.030Z,23.12
2023-05-16T06:05:39.526Z,23.14
2023-05-16T06:06:39.051Z,23.17
2023-05-16T06:07:39.081Z,23.19
2023-05-16T06:08:39.998Z,23.20
2023-05-16T06:09:39.011Z,23.23
2023-05-16T06:10:39.482Z,23.25
2023-05-16T06:11:38.981Z,23.28
2023-05-16T06:12:39.029Z,23.30
2023-05-16T06:13:38.989Z,23.34
2023-05-16T06:14:39.063Z,23.34
2023-05-16T06:15:39.035Z,23.36
2023-05-16T06:16:39.133Z,23.38
2023-05-16T06:17:39.126Z,23.39
2023-05-16T06:18:39.238Z,23.40
2023-05-16T06:19:39.213Z,23.43
2023-05-16T06:20:39.240Z,23.44
2023-05-16T06:21:39.268Z,23.45
2023-05-16T06:22:39.322Z,23.48
2023-05-16T06:23:39.409Z,23.50
2023-05-16T06:24:39.562Z,23.51
2023-05-16T06:25:39.522Z,23.53
2023-05-16T06:26:39.650Z,23.57
2023-05-16T06:27:39.662Z,23.59
2023-05-16T06:28:39.713Z,23.60
2023-05-16T06:29:39.907Z,23.61
2023-05-16T06:30:40.102Z,23.62
2023-05-16T06:31:39.911Z,23.64
2023-05-16T06:32:39.953Z,23.65
2023-05-16T06:33:40.002Z,23.66
2023-05-16T06:34:40.059Z,23.68
2023-05-16T06:35:40.521Z,23.68
2023-05-16T06:36:40.165Z,23.69
2023-05-16T06:37:42.092Z,23.69
2023-05-16T06:38:40.223Z,23.71
2023-05-16T06:39:40.271Z,23.72
2023-05-16T06:40:40.507Z,23.75
2023-05-16T06:41:40.184Z,23.77
2023-05-16T06:42:40.197Z,23.80
2023-05-16T06:43:40.192Z,23.82
2023-05-16T06:44:40.158Z,23.84
2023-05-16T06:45:40.191Z,23.84
2023-05-16T06:46:40.189Z,23.85
2023-05-16T06:47:40.205Z,23.86
2023-05-16T06:48:40.165Z,23.86
2023-05-16T06:49:41.040Z,23.87
2023-05-16T06:50:40.492Z,23.88
2023-05-16T06:51:40.151Z,23.89
2023-05-16T06:52:40.125Z,23.90
2023-05-16T06:53:40.124Z,23.90
2023-05-16T06:54:40.157Z,23.90
2023-05-16T06:55:40.540Z,23.91
2023-05-16T06:56:40.128Z,23.92
2023-05-16T06:57:40.125Z,23.92
2023-05-16T06:58:40.073Z,23.92
2023-05-16T06:59:40.146Z,23.94
2023-05-16T07:00:40.508Z,23.94
2023-05-16T07:01:40.116Z,23.96
2023-05-16T07:02:40.165Z,23.97
2023-05-16T07:03:40.198Z,23.99
2023-05-16T07:04:40.026Z,24.00
2023-05-16T07:05:40.054Z,24.02
2023-05-16T07:06:40.039Z,24.03
2023-05-16T07:07:39.989Z,24.04
2023-05-16T07:08:40.053Z,24.05
2023-05-16T07:09:39.997Z,24.06
2023-05-16T07:10:40.160Z,24.06
2023-05-16T07:11:39.993Z,24.07
2023-05-16T07:12:40.034Z,24.07
2023-05-16T07:13:40.014Z,24.08
2023-05-16T07:14:39.979Z,24.10
2023-05-16T07:15:40.090Z,24.13
2023-05-16T07:16:39.992Z,24.16
2023-05-16T07:17:39.969Z,24.19
2023-05-16T07:18:40.156Z,24.21
2023-05-16T07:19:39.947Z,24.23
2023-05-16T07:20:40.024Z,24.22
2023-05-16T07:21:39.895Z,24.19
2023-05-16T07:22:39.924Z,24.22
2023-05-16T07:23:40.019Z,24.24
2023-05-16T07:24:39.994Z,24.24
2023-05-16T07:25:40.530Z,24.25
2023-05-16T07:26:40.058Z,24.24
2023-05-16T07:27:42.063Z,24.23
2023-05-16T07:28:40.093Z,24.25
2023-05-16T07:29:40.257Z,24.28
2023-05-16T07:30:40.207Z,24.29
2023-05-16T07:31:40.272Z,24.28
2023-05-16T07:32:40.225Z,24.26
2023-05-16T07:33:40.269Z,24.26
2023-05-16T07:34:40.381Z,24.26
2023-05-16T07:35:40.312Z,24.28
2023-05-16T07:36:40.321Z,24.29
2023-05-16T07:37:40.344Z,24.28
2023-05-16T07:38:40.721Z,24.29
2023-05-16T07:39:41.364Z,24.32
2023-05-16T07:40:40.559Z,24.33
2023-05-16T07:41:40.573Z,24.34
2023-05-16T07:42:40.447Z,24.34
2023-05-16T07:43:40.520Z,24.34
2023-05-16T07:44:40.422Z,24.35
2023-05-16T07:45:40.495Z,24.36
2023-05-16T07:46:40.445Z,24.36
2023-05-16T07:47:40.492Z,24.39
2023-05-16T07:48:40.524Z,24.43
2023-05-16T07:49:40.461Z,24.47
2023-05-16T07:50:40.439Z,24.49
2023-05-16T07:51:40.422Z,24.48
2023-05-16T07:52:40.415Z,24.45
2023-05-16T07:53:40.450Z,24.43
2023-05-16T07:54:40.471Z,24.44
2023-05-16T07:55:40.542Z,24.44
2023-05-16T07:56:40.498Z,24.43
2023-05-16T07:57:40.470Z,24.43
2023-05-16T07:58:40.548Z,24.43
2023-05-16T07:59:40.671Z,24.44
2023-05-16T08:00:40.508Z,24.44
2023-05-16T08:01:40.528Z,24.43
2023-05-16T08:02:40.647Z,24.41
2023-05-16T08:03:40.629Z,24.42
2023-05-16T08:04:40.757Z,24.43
2023-05-16T08:05:42.072Z,24.44
2023-05-16T08:06:40.619Z,24.45
2023-05-16T08:07:40.583Z,24.47
2023-05-16T08:08:40.884Z,24.49
2023-05-16T08:09:40.759Z,24.48
2023-05-16T08:10:40.586Z,24.46
2023-05-16T08:11:40.648Z,24.45
2023-05-16T08:12:40.633Z,24.46
2023-05-16T08:13:40.603Z,24.46
2023-05-16T08:14:40.617Z,24.48
2023-05-16T08:15:41.758Z,24.51
2023-05-16T08:16:40.677Z,24.52
2023-05-16T08:17:40.869Z,24.52
2023-05-16T08:18:40.980Z,24.52
2023-05-16T08:19:40.630Z,24.52
2023-05-16T08:20:41.022Z,24.50
2023-05-16T08:21:40.671Z,24.49
2023-05-16T08:22:40.778Z,24.50
2023-05-16T08:23:40.697Z,24.50
2023-05-16T08:24:40.664Z,24.50
2023-05-16T08:25:40.674Z,24.51
2023-05-16T08:26:40.667Z,24.51
2023-05-16T08:27:40.809Z,24.50
2023-05-16T08:28:40.684Z,24.51
2023-05-16T08:29:40.651Z,24.52
2023-05-16T08:30:42.912Z,24.54
2023-05-16T08:31:40.719Z,24.55
2023-05-16T08:32:40.847Z,24.53
2023-05-16T08:33:40.633Z,24.54
2023-05-16T08:34:42.584Z,24.53
2023-05-16T08:35:41.083Z,24.52
2023-05-16T08:36:41.042Z,24.53
2023-05-16T08:37:40.593Z,24.55
2023-05-16T08:38:40.602Z,24.56
2023-05-16T08:39:40.584Z,24.55
2023-05-16T08:40:40.690Z,24.54
2023-05-16T08:41:41.248Z,24.51
2023-05-16T08:42:40.859Z,24.49
2023-05-16T08:43:41.740Z,24.46
2023-05-16T08:44:40.669Z,24.44
2023-05-16T08:45:41.543Z,24.42
2023-05-16T08:46:40.717Z,24.41
2023-05-16T08:47:40.667Z,24.39
2023-05-16T08:48:40.516Z,24.38
2023-05-16T08:49:40.575Z,24.37
2023-05-16T08:50:40.509Z,24.35
2023-05-16T08:51:40.499Z,24.35
2023-05-16T08:52:40.536Z,24.33
2023-05-16T08:53:40.466Z,24.31
2023-05-16T08:54:40.477Z,24.30
2023-05-16T08:55:40.487Z,24.29
2023-05-16T08:56:40.462Z,24.28
2023-05-16T08:57:40.455Z,24.26
2023-05-16T08:58:40.440Z,24.26
2023-05-16T08:59:40.438Z,24.25
2023-05-16T09:00:40.469Z,24.24
2023-05-16T09:01:40.619Z,24.23
2023-05-16T09:02:40.477Z,24.22
2023-05-16T09:03:40.428Z,24.20
2023-05-16T09:04:40.374Z,24.19
2023-05-16T09:05:40.397Z,24.18
2023-05-16T09:06:40.554Z,24.18
2023-05-16T09:07:40.366Z,24.16
2023-05-16T09:08:40.367Z,24.17
2023-05-16T09:09:40.404Z,24.15
2023-05-16T09:10:40.364Z,24.15
2023-05-16T09:11:40.580Z,24.15
2023-05-16T09:12:40.392Z,24.14
2023-05-16T09:13:40.619Z,24.12
2023-05-16T09:14:41.410Z,24.12
2023-05-16T09:15:40.411Z,24.12
2023-05-16T09:16:40.652Z,24.12
2023-05-16T09:17:42.237Z,24.10
2023-05-16T09:18:40.556Z,24.10
2023-05-16T09:19:40.509Z,24.09
2023-05-16T09:20:40.442Z,24.08
2023-05-16T09:21:40.568Z,24.08
2023-05-16T09:22:40.480Z,24.07
2023-05-16T09:23:40.490Z,24.05
2023-05-16T09:24:40.507Z,24.05
2023-05-16T09:25:40.586Z,24.04
2023-05-16T09:26:40.776Z,24.03
2023-05-16T09:27:41.827Z,24.03
2023-05-16T09:28:41.576Z,24.04
2023-05-16T09:29:40.623Z,24.05
2023-05-16T09:30:40.619Z,24.06
2023-05-16T09:31:40.805Z,24.07
2023-05-16T09:32:40.658Z,24.09
2023-05-16T09:33:40.673Z,24.11
2023-05-16T09:34:40.878Z,24.13
2023-05-16T09:35:45.496Z,24.15
2023-05-16T09:36:43.522Z,24.17
2023-05-16T09:37:40.694Z,24.19
2023-05-16T09:38:40.680Z,24.22
2023-05-16T09:39:40.893Z,24.24
2023-05-16T09:40:40.643Z,24.26
2023-05-16T09:41:41.090Z,24.27
2023-05-16T09:42:40.648Z,24.31
2023-05-16T09:43:41.819Z,24.35
2023-05-16T09:44:40.756Z,24.37
2023-05-16T09:45:40.608Z,24.40
2023-05-16T09:46:40.658Z,24.44
2023-05-16T09:47:40.663Z,24.48
2023-05-16T09:48:40.602Z,24.51
2023-05-16T09:49:40.664Z,24.53
2023-05-16T09:50:40.717Z,24.55
2023-05-16T09:51:41.378Z,24.56
2023-05-16T09:52:40.609Z,24.57
2023-05-16T09:53:40.589Z,24.59
2023-05-16T09:54:40.557Z,24.60
2023-05-16T09:55:40.553Z,24.61
2023-05-16T09:56:40.579Z,24.65
2023-05-16T09:57:40.522Z,24.68
2023-05-16T09:58:40.539Z,24.73
2023-05-16T09:59:40.565Z,24.75
2023-05-16T10:00:40.505Z,24.79
2023-05-16T10:01:40.531Z,24.83
2023-05-16T10:02:40.555Z,24.83
2023-05-16T10:03:40.738Z,24.85
2023-05-16T10:04:40.501Z,24.87
2023-05-16T10:05:40.489Z,24.89
2023-05-16T10:06:40.498Z,24.91
2023-05-16T10:07:40.456Z,24.92
2023-05-16T10:08:40.481Z,24.95
2023-05-16T10:09:40.685Z,24.97
2023-05-16T10:10:40.528Z,24.98
2023-05-16T10:11:40.535Z,24.97
2023-05-16T10:12:40.696Z,24.96
2023-05-16T10:13:40.690Z,24.97
2023-05-16T10:14:40.713Z,24.97
2023-05-16T10:15:40.852Z,24.97
2023-05-16T10:16:40.883Z,24.96
2023-05-16T10:17:40.909Z,24.97
2023-05-16T10:18:41.001Z,24.98
2023-05-16T10:19:41.044Z,25.02
2023-05-16T10:20:41.151Z,25.02
2023-05-16T10:21:41.141Z,24.98
2023-05-16T10:22:41.236Z,24.92
2023-05-16T10:23:41.335Z,24.88
2023-05-16T10:24:41.627Z,24.84
2023-05-16T10:25:41.384Z,24.80
2023-05-16T10:26:43.371Z,24.76
2023-05-16T10:27:41.515Z,24.73
2023-05-16T10:28:41.542Z,24.70
2023-05-16T10:29:53.553Z,24.68
2023-05-16T10:30:42.614Z,24.66
2023-05-16T10:31:41.608Z,24.64
2023-05-16T10:32:42.986Z,24.62
2023-05-16T10:33:41.596Z,24.59
2023-05-16T10:34:41.578Z,24.57
2023-05-16T10:35:41.679Z,24.55
2023-05-16T10:36:41.573Z,24.53
2023-05-16T10:37:41.551Z,24.52
2023-05-16T10:38:41.586Z,24.50
2023-05-16T10:39:41.606Z,24.49
2023-05-16T10:40:41.742Z,24.48
2023-05-16T10:41:41.741Z,24.46
2023-05-16T10:42:41.741Z,24.46
2023-05-16T10:43:44.487Z,24.44
2023-05-16T10:44:48.563Z,24.43
2023-05-16T10:45:42.852Z,24.41
2023-05-16T10:46:41.782Z,24.40
2023-05-16T10:47:41.799Z,24.38
2023-05-16T10:48:41.713Z,24.37
2023-05-16T10:49:41.688Z,24.37
2023-05-16T10:50:41.664Z,24.36
2023-05-16T10:51:41.701Z,24.35
2023-05-16T10:52:41.652Z,24.35
2023-05-16T10:53:41.661Z,24.33
2023-05-16T10:54:41.661Z,24.32
2023-05-16T10:55:41.631Z,24.32
2023-05-16T10:56:41.654Z,24.32
2023-05-16T10:57:41.660Z,24.31
2023-05-16T10:58:41.619Z,24.30
2023-05-16T10:59:41.643Z,24.29
2023-05-16T11:00:41.600Z,24.28
2023-05-16T11:01:41.648Z,24.28
2023-05-16T11:02:41.703Z,24.27
2023-05-16T11:03:41.669Z,24.26
2023-05-16T11:04:41.599Z,24.26
2023-05-16T11:05:41.570Z,24.25
2023-05-16T11:06:41.840Z,24.24
2023-05-16T11:07:41.612Z,24.24
2023-05-16T11:08:41.531Z,24.23
2023-05-16T11:09:41.527Z,24.23
2023-05-16T11:10:41.542Z,24.22
2023-05-16T11:11:41.755Z,24.21
2023-05-16T11:12:41.602Z,24.21
2023-05-16T11:13:41.579Z,24.20
2023-05-16T11:14:41.515Z,24.20
2023-05-16T11:15:41.495Z,24.19
2023-05-16T11:16:42.194Z,24.18
2023-05-16T11:17:42.861Z,24.17
2023-05-16T11:18:41.690Z,24.17
2023-05-16T11:19:41.690Z,24.16
2023-05-16T11:20:41.683Z,24.16
2023-05-16T11:21:42.128Z,24.16
2023-05-16T11:22:41.708Z,24.16
2023-05-16T11:23:41.687Z,24.16
2023-05-16T11:24:41.705Z,24.15
2023-05-16T11:25:41.719Z,24.16
2023-05-16T11:26:42.146Z,24.15
2023-05-16T11:27:41.734Z,24.14
2023-05-16T11:28:41.717Z,24.13
2023-05-16T11:29:41.716Z,24.13
2023-05-16T11:30:41.722Z,24.11
2023-05-16T11:31:41.788Z,24.12
2023-05-16T11:32:41.761Z,24.11
2023-05-16T11:33:41.737Z,24.11
2023-05-16T11:34:41.740Z,24.11
2023-05-16T11:35:41.722Z,24.10
2023-05-16T11:36:41.725Z,24.10
2023-05-16T11:37:41.707Z,24.09
2023-05-16T11:38:41.684Z,24.08
2023-05-16T11:39:41.747Z,24.08
2023-05-16T11:40:41.678Z,24.08
2023-05-16T11:41:41.694Z,24.08
2023-05-16T11:42:41.647Z,24.08
2023-05-16T11:43:41.670Z,24.07
2023-05-16T11:44:42.660Z,24.06
2023-05-16T11:45:41.681Z,24.06
2023-05-16T11:46:41.724Z,24.06
2023-05-16T11:47:41.671Z,24.06
2023-05-16T11:48:41.740Z,24.06
2023-05-16T11:49:41.633Z,24.05
2023-05-16T11:50:41.627Z,24.05
2023-05-16T11:51:42.107Z,24.04
2023-05-16T11:52:41.569Z,24.04
2023-05-16T11:53:41.575Z,24.04
2023-05-16T11:54:41.602Z,24.02
2023-05-16T11:55:42.545Z,24.02
2023-05-16T11:56:41.669Z,24.03
2023-05-16T11:57:41.654Z,24.02
2023-05-16T11:58:41.690Z,24.03
2023-05-16T11:59:41.742Z,24.02
2023-05-16T12:00:41.737Z,24.01
2023-05-16T12:01:41.758Z,24.01
2023-05-16T12:02:41.893Z,24.01
2023-05-16T12:03:42.037Z,24.00
2023-05-16T12:04:41.980Z,24.01
2023-05-16T12:05:42.036Z,24.00
2023-05-16T12:06:41.913Z,24.00
2023-05-16T12:07:41.912Z,23.99
2023-05-16T12:08:41.946Z,23.99
2023-05-16T12:09:42.002Z,23.98
2023-05-16T12:10:41.993Z,23.98
2023-05-16T12:11:42.045Z,23.98
2023-05-16T12:12:42.041Z,23.98
2023-05-16T12:13:42.105Z,23.97
2023-05-16T12:14:42.204Z,23.98
2023-05-16T12:15:42.129Z,23.98
2023-05-16T12:16:42.324Z,23.97
2023-05-16T12:17:42.227Z,23.97
2023-05-16T12:18:43.551Z,23.97
2023-05-16T12:19:42.268Z,23.96
2023-05-16T12:20:42.268Z,23.96
2023-05-16T12:21:42.310Z,23.95
2023-05-16T12:22:42.322Z,23.94
2023-05-16T12:23:42.380Z,23.95
2023-05-16T12:24:42.414Z,23.94
2023-05-16T12:25:42.425Z,23.94
2023-05-16T12:26:42.478Z,23.93
2023-05-16T12:27:44.000Z,23.93
2023-05-16T12:28:42.475Z,23.93
2023-05-16T12:29:42.487Z,23.93
2023-05-16T12:30:42.513Z,23.92
2023-05-16T12:31:42.483Z,23.93
2023-05-16T12:32:42.556Z,23.92
2023-05-16T12:33:42.454Z,23.91
2023-05-16T12:34:42.413Z,23.92
2023-05-16T12:35:42.419Z,23.92
2023-05-16T12:36:42.416Z,23.91
2023-05-16T12:37:42.395Z,23.91
2023-05-16T12:38:42.404Z,23.91
2023-05-16T12:39:42.366Z,23.91
2023-05-16T12:40:42.403Z,23.91
2023-05-16T12:41:42.367Z,23.90
2023-05-16T12:42:42.388Z,23.90
2023-05-16T12:43:42.361Z,23.89
2023-05-16T12:44:42.329Z,23.88
2023-05-16T12:45:42.336Z,23.88
2023-05-16T12:46:42.515Z,23.88
2023-05-16T12:47:42.355Z,23.87
2023-05-16T12:48:42.308Z,23.88
2023-05-16T12:49:42.295Z,23.87
2023-05-16T12:50:42.333Z,23.88
2023-05-16T12:51:42.274Z,23.87
2023-05-16T12:52:42.283Z,23.87